createdAt,value
2022-08-17T00:02:27.564Z,1013.1
2022-08-17T00:08:11.556Z,1012.7
2022-08-17T00:13:56.417Z,1012.5
2022-08-17T00:19:36.457Z,1012.5
2022-08-17T00:25:16.666Z,1012.5
2022-08-17T00:30:56.845Z,1012.6
2022-08-17T00:36:37.091Z,1012.5
2022-08-17T00:42:17.227Z,1012.7
2022-08-17T00:47:57.665Z,1012.8
2022-08-17T00:53:37.817Z,1013.1
2022-08-17T00:59:18.236Z,1012.9
2022-08-17T01:04:58.218Z,1012.8
2022-08-17T01:11:02.195Z,1012.9
2022-08-17T01:16:42.709Z,1013
2022-08-17T01:22:22.948Z,1013.4
2022-08-17T01:28:03.096Z,1013.5
2022-08-17T01:33:43.294Z,1013.6
2022-08-17T01:39:23.501Z,1013.5
2022-08-17T01:45:03.864Z,1013.8
2022-08-17T01:50:44.193Z,1014
2022-08-17T01:56:26.605Z,1014.3
2022-08-17T02:02:06.727Z,1014.2
2022-08-17T02:08:01.033Z,1014
2022-08-17T02:13:42.798Z,1013.8
2022-08-17T02:19:22.882Z,1013.6
2022-08-17T02:25:03.078Z,1013.5
2022-08-17T02:31:03.560Z,1013.5
2022-08-17T02:36:43.828Z,1013.2
2022-08-17T02:42:24.129Z,1012.9
2022-08-17T02:48:08.341Z,1012.5
2022-08-17T02:53:49.267Z,1012.3
2022-08-17T02:59:29.559Z,1012.2
2022-08-17T03:05:09.645Z,1012.1
2022-08-17T03:10:49.861Z,1012
2022-08-17T03:16:30.298Z,1011.9
2022-08-17T03:22:38.846Z,1011.9
2022-08-17T03:28:21.315Z,1011.8
2022-08-17T03:34:02.465Z,1011.6
2022-08-17T03:39:43.344Z,1011.5
2022-08-17T03:45:23.996Z,1011.5
2022-08-17T03:51:04.271Z,1011.5
2022-08-17T03:56:44.574Z,1011.4
2022-08-17T04:02:25.015Z,1011.4
2022-08-17T04:08:05.703Z,1011.3
2022-08-17T04:13:47.204Z,1011.4
2022-08-17T04:19:27.469Z,1011.4
2022-08-17T04:25:07.792Z,1011.4
2022-08-17T04:30:47.994Z,1011.4
2022-08-17T04:36:28.452Z,1011.3
2022-08-17T04:42:08.774Z,1011.4
2022-08-17T04:47:48.986Z,1011.4
2022-08-17T04:53:29.272Z,1011.5
2022-08-17T04:59:09.535Z,1011.4
2022-08-17T05:04:49.836Z,1011.4
2022-08-17T05:10:30.170Z,1011.5
2022-08-17T05:16:10.512Z,1011.7
2022-08-17T05:21:51.479Z,1011.7
2022-08-17T05:27:36.235Z,1011.8
2022-08-17T05:33:16.646Z,1011.7
2022-08-17T05:38:57.025Z,1011.7
2022-08-17T05:44:37.612Z,1011.8
2022-08-17T05:50:27.293Z,1011.9
2022-08-17T05:56:30.856Z,1012
2022-08-17T06:02:14.221Z,1012.2
2022-08-17T06:07:54.657Z,1012.3
2022-08-17T06:13:34.846Z,1012.4
2022-08-17T06:19:15.220Z,1012.2
2022-08-17T06:24:55.725Z,1011.9
2022-08-17T06:31:01.658Z,1012.1
2022-08-17T06:36:42.196Z,1011.8
2022-08-17T08:10:35.105Z,1011.2
2022-08-17T08:16:15.690Z,1011.8
2022-08-17T08:21:56.119Z,1011.8
2022-08-17T08:27:36.985Z,1012.3
2022-08-17T08:33:17.349Z,1012.5
2022-08-17T08:38:57.342Z,1012.7
2022-08-17T08:45:05.753Z,1013.1
2022-08-17T08:50:46.378Z,1013.4
2022-08-17T08:56:27.149Z,1013.4
2022-08-17T09:02:07.118Z,1013.5
2022-08-17T09:07:47.332Z,1014.4
2022-08-17T09:13:27.416Z,1015.3
2022-08-17T09:19:08.283Z,1015.8
2022-08-17T09:24:48.503Z,1015.5
2022-08-17T09:30:31.494Z,1015.7
2022-08-17T09:36:11.632Z,1016.4
2022-08-17T09:41:51.829Z,1017
2022-08-17T09:47:32.899Z,1017.3
2022-08-17T09:53:13.098Z,1017.5
2022-08-17T09:58:53.351Z,1017.6
2022-08-17T10:04:34.083Z,1017.7
2022-08-17T10:10:21.084Z,1017.9
2022-08-17T10:16:04.622Z,1017.8
2022-08-17T10:21:48.234Z,1017.7
2022-08-17T10:27:28.608Z,1017.9
2022-08-17T10:33:08.856Z,1018
2022-08-17T10:38:49.251Z,1018.1
2022-08-17T10:44:41.782Z,1017.6
2022-08-17T10:50:22.824Z,1017.6
2022-08-17T10:56:03.464Z,1017.3
2022-08-17T11:01:49.335Z,1017.2
2022-08-17T11:07:30.124Z,1017.1
2022-08-17T11:13:10.813Z,1016.1
2022-08-17T11:18:50.919Z,1015.6
2022-08-17T11:24:32.154Z,1015.4
2022-08-17T11:30:12.495Z,1015.3
2022-08-17T11:35:59.945Z,1015.6
2022-08-17T11:41:43.664Z,1015.6
2022-08-17T11:47:34.509Z,1015.6
2022-08-17T11:53:15.016Z,1016.4
2022-08-17T11:58:55.182Z,1016.8
2022-08-17T12:04:36.171Z,1017.1
2022-08-17T12:10:17.048Z,1017.3
2022-08-17T12:15:57.668Z,1017.7
2022-08-17T12:21:37.915Z,1017.5
2022-08-17T12:28:07.757Z,1017.4
2022-08-17T12:33:50.094Z,1017
2022-08-17T12:39:34.623Z,1016.9
2022-08-17T12:45:16.423Z,1016.9
2022-08-17T12:51:32.547Z,1016.8
2022-08-17T12:57:21.543Z,1016.8
2022-08-17T13:03:02.486Z,1016.8
2022-08-17T13:08:43.485Z,1016.6
2022-08-17T13:14:24.311Z,1016.5
2022-08-17T13:20:04.991Z,1015.9
2022-08-17T13:25:45.152Z,1015.7
2022-08-17T13:31:32.127Z,1015.3
2022-08-17T13:37:35.709Z,1014.8
2022-08-17T13:43:16.626Z,1014.2
2022-08-17T13:48:57.139Z,1013.5
2022-08-17T13:54:50.768Z,1012.7
2022-08-17T14:00:36.994Z,1013.1
2022-08-17T14:12:00.909Z,1011.7
2022-08-17T14:17:44.026Z,1011.4
2022-08-17T14:23:28.509Z,1011.2
2022-08-17T14:29:15.921Z,1011.2
2022-08-17T14:35:04.547Z,1011.1
2022-08-17T14:40:48.225Z,1011.1
2022-08-17T14:46:28.467Z,1011.1
2022-08-17T14:52:09.204Z,1011.1
2022-08-17T14:57:49.816Z,1011.1
2022-08-17T15:03:33.807Z,1011.1
2022-08-17T15:09:17.650Z,1011
2022-08-17T15:14:58.316Z,1011.1
2022-08-17T15:25:54.572Z,1011.1
2022-08-17T15:32:38.952Z,1011.1
2022-08-17T15:43:28.457Z,1011.3
2022-08-17T15:49:08.593Z,1011.5
2022-08-17T15:54:48.554Z,1011.7
2022-08-17T16:00:28.719Z,1011.7
2022-08-17T16:06:11.409Z,1011.8
2022-08-17T16:11:57.045Z,1011.6
2022-08-17T16:17:40.888Z,1011.6
2022-08-17T16:23:24.507Z,1011.7
2022-08-17T16:29:04.719Z,1011.8
2022-08-17T16:34:44.797Z,1011.7
2022-08-17T16:40:25.929Z,1011.8
2022-08-17T16:46:06.226Z,1011.9
2022-08-17T16:51:46.472Z,1011.8
2022-08-17T16:57:26.767Z,1011.7
2022-08-17T17:03:20.842Z,1011.7
2022-08-17T17:09:01.325Z,1011.7
2022-08-17T17:14:41.595Z,1011.9
2022-08-17T17:20:21.824Z,1012.1
2022-08-17T17:26:01.968Z,1012.2
2022-08-17T17:31:42.305Z,1013.2
2022-08-17T17:37:24.688Z,1013.4
2022-08-17T17:43:40.977Z,1013.5
2022-08-17T17:49:22.046Z,1013.8
2022-08-17T17:55:02.587Z,1013.9
2022-08-17T18:00:42.885Z,1013.8
2022-08-17T18:06:29.181Z,1013.8
2022-08-17T18:12:10.886Z,1013.8
2022-08-17T18:17:53.727Z,1014
2022-08-17T18:23:33.790Z,1014.3
2022-08-17T18:29:16.389Z,1014.4
2022-08-17T18:34:56.751Z,1014.8
2022-08-17T18:40:36.999Z,1015.1
2022-08-17T18:46:30.181Z,1015.2
2022-08-17T18:52:15.566Z,1015.3
2022-08-17T18:57:58.747Z,1015.7
2022-08-17T19:03:43.394Z,1015.9
2022-08-17T19:09:29.135Z,1016
2022-08-17T19:30:55.326Z,1016.7
2022-08-17T19:36:35.856Z,1016.8
2022-08-17T19:47:56.537Z,1016.9
2022-08-17T19:54:07.404Z,1016.9
2022-08-17T19:59:53.412Z,1016.9
2022-08-17T20:06:14.138Z,1017.2
2022-08-17T20:17:03.229Z,1017.5
2022-08-17T20:22:55.840Z,1017.6
2022-08-17T20:33:37.595Z,1017.9
2022-08-17T20:44:22.786Z,1018.1
2022-08-17T20:50:03.218Z,1018.3
2022-08-17T20:55:53.478Z,1018.5
2022-08-17T21:01:34.159Z,1018.8
2022-08-17T21:07:15.442Z,1018.9
2022-08-17T21:12:55.940Z,1019
2022-08-17T21:18:39.158Z,1019
2022-08-17T21:24:19.702Z,1018.9
2022-08-17T21:30:00.535Z,1019
2022-08-17T21:35:41.248Z,1019
2022-08-17T21:41:24.629Z,1019.1
2022-08-17T21:47:04.987Z,1018.8
2022-08-17T21:52:45.218Z,1018.7
2022-08-17T21:58:28.600Z,1018.5
2022-08-17T22:04:09.390Z,1018.1
2022-08-17T22:09:49.781Z,1017.7
2022-08-17T22:15:30.112Z,1017.5
2022-08-17T22:21:10.447Z,1016.5
2022-08-17T22:26:50.685Z,1015.8
2022-08-17T22:32:31.056Z,1015.3
2022-08-17T22:38:11.701Z,1014.7
2022-08-17T22:43:52.340Z,1014.5
2022-08-17T22:49:33.344Z,1014.4
2022-08-17T22:55:13.744Z,1014.2
2022-08-17T23:00:54.455Z,1014.2
2022-08-17T23:06:34.794Z,1014.2
2022-08-17T23:12:15.414Z,1014.2
2022-08-17T23:17:55.644Z,1014.2
2022-08-17T23:23:35.921Z,1014.1
2022-08-17T23:29:16.202Z,1014.5
2022-08-17T23:34:56.687Z,1014.4
2022-08-17T23:40:37.747Z,1014.1
2022-08-17T23:46:20.443Z,1014
2022-08-17T23:52:00.697Z,1013.7
2022-08-17T23:57:40.987Z,1013.8
